Time;durP1;ratioP1;P1;durP2;ratioP2;P2;SDS_P1;SDS_P2;PMS_P1;PMS_P2;Temp;Humidity;BMP_temperature;BMP_pressure;BME280_temperature;BME280_humidity;BME280_pressure;Samples;Min_cycle;Max_cycle;Signal;HPM_P1;HPM_P2
2023/10/29 00:00:28;;;;;;;;;;;;;;;;;;4965959;28;20353;-91
2023/10/29 00:02:54;;;;;;;;;;;;;;;;;;4962254;28;19964;-91
2023/10/29 00:05:20;;;;;;;;;;;;;;;;;;4969103;28;19918;-91
2023/10/29 00:07:46;;;;;;;;;;;;;;;;;;4963664;28;20394;-91
2023/10/29 00:10:12;;;;;;;;;;;;;;;;;;4962413;28;20020;-90
2023/10/29 00:12:38;;;;;;;;;;;;;;;;;;4965854;28;20009;-90
2023/10/29 00:15:05;;;;;;;;;;;;;;;;;;4964055;28;19926;-90
2023/10/29 00:17:31;;;;;;;;;;;;;;;;;;4971701;28;19922;-90
2023/10/29 00:19:59;;;;;;;;;;;;;;;;;;4962157;28;19918;-90
2023/10/29 00:22:26;;;;;;;;;;;;;;;;;;4968880;28;19976;-90
2023/10/29 00:24:51;;;;;;;;;;;;;;;;;;4968594;28;19918;-90
2023/10/29 00:27:17;;;;;;;;;;;;;;;;;;4969926;28;19915;-90
2023/10/29 00:29:45;;;;;;;;;;;;;;;;;;4968068;28;19930;-90
2023/10/29 00:32:12;;;;;;;;;;;;;;;;;;4968315;28;19918;-90
2023/10/29 00:34:38;;;;;;;;;;;;;;;;;;4970434;28;19922;-89
2023/10/29 00:37:04;;;;;;;;;;;;;;;;;;4961795;28;19938;-89
2023/10/29 00:39:30;;;;;;;;;;;;;;;;;;4972223;28;20398;-92
2023/10/29 00:41:57;;;;;;;;;;;;;;;;;;4965541;28;19922;-93
2023/10/29 00:44:26;;;;;;;;;;;;;;;;;;4970716;28;19926;-93
2023/10/29 00:46:52;;;;;;;;;;;;;;;;;;4967656;28;19925;-94
2023/10/29 00:49:18;;;;;;;;;;;;;;;;;;4967479;28;20378;-94
2023/10/29 00:51:51;;;;;;;;;;;;;;;;;;4974775;28;19918;-93
2023/10/29 00:54:17;;;;;;;;;;;;;;;;;;4966614;28;19969;-94
2023/10/29 00:56:43;;;;;;;;;;;;;;;;;;4976058;28;19922;-92
2023/10/29 00:59:11;;;;;;;;;;;;;;;;;;4964157;28;20380;-92
2023/10/29 01:01:37;;;;;;;;;;;;;;;;;;4968009;28;19960;-94
2023/10/29 01:04:04;;;;;;;;;;;;;;;;;;4964008;28;20383;-91
2023/10/29 01:06:30;;;;;;;;;;;;;;;;;;4972273;28;19915;-94
2023/10/29 01:08:56;;;;;;;;;;;;;;;;;;4971986;28;19914;-90
2023/10/29 01:11:22;;;;;;;;;;;;;;;;;;4965779;28;19925;-91
2023/10/29 01:13:48;;;;;;;;;;;;;;;;;;4963985;28;19925;-91
2023/10/29 01:16:14;;;;;;;;;;;;;;;;;;4962222;28;19917;-91
2023/10/29 01:18:40;;;;;;;;;;;;;;;;;;4970136;28;20060;-91
2023/10/29 01:21:08;;;;;;;;;;;;;;;;;;4958818;28;19922;-91
2023/10/29 01:23:35;;;;;;;;;;;;;;;;;;4967621;28;20457;-91
2023/10/29 01:26:01;;;;;;;;;;;;;;;;;;4965511;28;20000;-91
2023/10/29 01:28:27;;;;;;;;;;;;;;;;;;4965925;28;19958;-91
2023/10/29 01:30:53;;;;;;;;;;;;;;;;;;4968158;28;19929;-92
2023/10/29 01:33:19;;;;;;;;;;;;;;;;;;4970012;28;20375;-91
2023/10/29 01:35:45;;;;;;;;;;;;;;;;;;4969111;28;20247;-91
2023/10/29 01:38:17;;;;;;;;;;;;;;;;;;4962972;28;19914;-91
2023/10/29 01:40:43;;;;;;;;;;;;;;;;;;4968821;28;19918;-92
2023/10/29 01:43:09;;;;;;;;;;;;;;;;;;4965582;28;19918;-91
2023/10/29 01:45:41;;;;;;;;;;;;;;;;;;4973322;28;19941;-91
2023/10/29 01:48:07;;;;;;;;;;;;;;;;;;4959969;28;20272;-91
2023/10/29 01:50:43;;;;;;;;;;;;;;;;;;4968916;28;19936;-91
2023/10/29 01:53:10;;;;;;;;;;;;;;;;;;4967456;28;19921;-92
2023/10/29 01:55:37;;;;;;;;;;;;;;;;;;4969002;28;19920;-91
2023/10/29 01:58:05;;;;;;;;;;;;;;;;;;4965328;28;19965;-92
2023/10/29 02:00:31;;;;;;;;;;;;;;;;;;4981014;28;21599;-91
2023/10/29 02:02:57;;;;;;;;;;;;;;;;;;4962392;28;19918;-91
2023/10/29 02:05:23;;;;;;;;;;;;;;;;;;4958861;28;19922;-92
2023/10/29 02:07:52;;;;;;;;;;;;;;;;;;4966876;28;20010;-91
2023/10/29 02:10:18;;;;;;;;;;;;;;;;;;4966103;28;19918;-91
2023/10/29 02:12:44;;;;;;;;;;;;;;;;;;4968215;28;19969;-91
2023/10/29 02:15:10;;;;;;;;;;;;;;;;;;4963447;28;19968;-92
2023/10/29 02:17:36;;;;;;;;;;;;;;;;;;4962554;28;19952;-91
2023/10/29 02:20:02;;;;;;;;;;;;;;;;;;4968001;28;20001;-90
2023/10/29 02:22:28;;;;;;;;;;;;;;;;;;4966162;28;20007;-89
2023/10/29 02:24:54;;;;;;;;;;;;;;;;;;4964441;28;19953;-89
2023/10/29 02:27:20;;;;;;;;;;;;;;;;;;4966796;28;19926;-89
2023/10/29 02:29:46;;;;;;;;;;;;;;;;;;4964279;28;19918;-90
2023/10/29 02:32:12;;;;;;;;;;;;;;;;;;4967536;28;19922;-89
2023/10/29 02:34:38;;;;;;;;;;;;;;;;;;4965675;28;20414;-90
2023/10/29 02:37:04;;;;;;;;;;;;;;;;;;4965972;28;20805;-90
2023/10/29 02:39:30;;;;;;;;;;;;;;;;;;4969028;28;19922;-89
2023/10/29 02:41:56;;;;;;;;;;;;;;;;;;4969569;28;20591;-90
2023/10/29 02:44:22;;;;;;;;;;;;;;;;;;4974004;28;19914;-89
2023/10/29 02:46:47;;;;;;;;;;;;;;;;;;4969025;28;20382;-90
2023/10/29 02:49:14;;;;;;;;;;;;;;;;;;4964141;28;19925;-89
2023/10/29 02:51:40;;;;;;;;;;;;;;;;;;4964388;28;20004;-90
2023/10/29 02:54:09;;;;;;;;;;;;;;;;;;4968425;28;19914;-89
2023/10/29 02:56:36;;;;;;;;;;;;;;;;;;4964481;28;20350;-89
2023/10/29 02:59:02;;;;;;;;;;;;;;;;;;4966398;28;20378;-89
2023/10/29 03:01:29;;;;;;;;;;;;;;;;;;4974730;28;20013;-90
2023/10/29 03:03:55;;;;;;;;;;;;;;;;;;4962710;28;19961;-89
2023/10/29 03:06:20;;;;;;;;;;;;;;;;;;4971189;28;19957;-89
2023/10/29 03:08:46;;;;;;;;;;;;;;;;;;4969121;28;19922;-90
2023/10/29 03:11:12;;;;;;;;;;;;;;;;;;4971557;28;19922;-89
2023/10/29 03:13:38;;;;;;;;;;;;;;;;;;4968186;28;19914;-89
2023/10/29 03:16:04;;;;;;;;;;;;;;;;;;4965948;28;19915;-91
2023/10/29 03:18:30;;;;;;;;;;;;;;;;;;4967725;28;19929;-89
2023/10/29 03:20:56;;;;;;;;;;;;;;;;;;4971101;28;19918;-90
2023/10/29 03:23:24;;;;;;;;;;;;;;;;;;4968473;28;19916;-90
2023/10/29 03:25:50;;;;;;;;;;;;;;;;;;4965979;28;19915;-89
2023/10/29 03:28:16;;;;;;;;;;;;;;;;;;4969857;28;19914;-91
2023/10/29 03:30:42;;;;;;;;;;;;;;;;;;4973459;28;19957;-91
2023/10/29 03:33:07;;;;;;;;;;;;;;;;;;4971324;28;19957;-92
2023/10/29 03:35:33;;;;;;;;;;;;;;;;;;4968217;28;20200;-91
2023/10/29 03:37:59;;;;;;;;;;;;;;;;;;4972726;28;20299;-91
2023/10/29 03:40:31;;;;;;;;;;;;;;;;;;4970159;28;19952;-91
2023/10/29 03:42:57;;;;;;;;;;;;;;;;;;4965994;28;19923;-91
2023/10/29 03:45:23;;;;;;;;;;;;;;;;;;4980750;28;20398;-92
2023/10/29 03:47:49;;;;;;;;;;;;;;;;;;4971319;28;19914;-91
2023/10/29 03:50:17;;;;;;;;;;;;;;;;;;4963653;28;19922;-91
2023/10/29 03:52:46;;;;;;;;;;;;;;;;;;4965173;28;19922;-92
2023/10/29 03:55:12;;;;;;;;;;;;;;;;;;4966390;28;20289;-92
2023/10/29 03:57:38;;;;;;;;;;;;;;;;;;4967623;28;19914;-91
2023/10/29 04:00:04;;;;;;;;;;;;;;;;;;4969004;28;19969;-90
2023/10/29 04:02:30;;;;;;;;;;;;;;;;;;4967114;28;20004;-91
2023/10/29 04:04:57;;;;;;;;;;;;;;;;;;4971902;28;19968;-91
2023/10/29 04:07:23;;;;;;;;;;;;;;;;;;4968630;28;19930;-91
2023/10/29 04:09:49;;;;;;;;;;;;;;;;;;4969186;28;19922;-89
2023/10/29 04:12:15;;;;;;;;;;;;;;;;;;4969582;28;19915;-90
2023/10/29 04:14:42;;;;;;;;;;;;;;;;;;4967066;28;19968;-90
2023/10/29 04:17:09;;;;;;;;;;;;;;;;;;4965839;28;19921;-89
2023/10/29 04:19:36;;;;;;;;;;;;;;;;;;4963882;28;19980;-90
2023/10/29 04:22:02;;;;;;;;;;;;;;;;;;4968962;28;20005;-90
2023/10/29 04:24:28;;;;;;;;;;;;;;;;;;4963800;28;19914;-90
2023/10/29 04:26:55;;;;;;;;;;;;;;;;;;4970709;28;19925;-90
2023/10/29 04:29:21;;;;;;;;;;;;;;;;;;4969236;28;20322;-90
2023/10/29 04:31:47;;;;;;;;;;;;;;;;;;4967537;28;20078;-90
2023/10/29 04:34:14;;;;;;;;;;;;;;;;;;4968745;28;19918;-89
2023/10/29 04:36:48;;;;;;;;;;;;;;;;;;4968988;28;19918;-90
2023/10/29 04:39:14;;;;;;;;;;;;;;;;;;4966793;28;19918;-89
2023/10/29 04:41:42;;;;;;;;;;;;;;;;;;4967207;28;19914;-90
2023/10/29 04:44:07;;;;;;;;;;;;;;;;;;4967416;28;19922;-90
2023/10/29 04:46:33;;;;;;;;;;;;;;;;;;4966209;28;19922;-90
2023/10/29 04:49:00;;;;;;;;;;;;;;;;;;4965804;28;19965;-89
2023/10/29 04:51:35;;;;;;;;;;;;;;;;;;4968392;28;19937;-90
2023/10/29 04:54:04;;;;;;;;;;;;;;;;;;4982570;28;19964;-89
2023/10/29 04:56:30;;;;;;;;;;;;;;;;;;4965187;28;20438;-89
2023/10/29 04:59:02;;;;;;;;;;;;;;;;;;4970203;28;19993;-90
2023/10/29 05:01:28;;;;;;;;;;;;;;;;;;4966403;28;22334;-90
2023/10/29 05:03:54;;;;;;;;;;;;;;;;;;4965257;28;19925;-90
2023/10/29 05:06:28;;;;;;;;;;;;;;;;;;4966982;28;20138;-90
2023/10/29 05:08:55;;;;;;;;;;;;;;;;;;4965605;28;19922;-90
2023/10/29 05:11:31;;;;;;;;;;;;;;;;;;4982997;28;19989;-89
2023/10/29 05:13:57;;;;;;;;;;;;;;;;;;4963355;28;19914;-90
2023/10/29 05:16:23;;;;;;;;;;;;;;;;;;4968771;28;20123;-90
2023/10/29 05:18:49;;;;;;;;;;;;;;;;;;4965954;28;20005;-89
2023/10/29 05:21:15;;;;;;;;;;;;;;;;;;4967123;28;19915;-89
2023/10/29 05:23:41;;;;;;;;;;;;;;;;;;4964595;28;19985;-90
2023/10/29 05:26:07;;;;;;;;;;;;;;;;;;4967593;28;19937;-89
2023/10/29 05:28:36;;;;;;;;;;;;;;;;;;4961184;28;19961;-89
2023/10/29 05:31:02;;;;;;;;;;;;;;;;;;4967327;28;19925;-90
2023/10/29 05:33:28;;;;;;;;;;;;;;;;;;4967541;28;20380;-90
2023/10/29 05:35:55;;;;;;;;;;;;;;;;;;4966347;28;19984;-89
2023/10/29 05:38:21;;;;;;;;;;;;;;;;;;4968801;28;19942;-90
2023/10/29 05:40:47;;;;;;;;;;;;;;;;;;4964500;28;19960;-89
2023/10/29 05:43:19;;;;;;;;;;;;;;;;;;4968191;28;20001;-90
2023/10/29 05:45:45;;;;;;;;;;;;;;;;;;4965948;28;20398;-89
2023/10/29 05:48:11;;;;;;;;;;;;;;;;;;4962633;28;20008;-89
2023/10/29 05:50:37;;;;;;;;;;;;;;;;;;4966956;28;19961;-89
2023/10/29 05:53:03;;;;;;;;;;;;;;;;;;4965506;28;20631;-89
2023/10/29 05:55:29;;;;;;;;;;;;;;;;;;4964321;28;19914;-89
2023/10/29 05:57:56;;;;;;;;;;;;;;;;;;4962591;28;19928;-91
2023/10/29 06:00:22;;;;;;;;;;;;;;;;;;4963235;28;19922;-89
2023/10/29 06:02:48;;;;;;;;;;;;;;;;;;4970369;28;20567;-89
2023/10/29 06:05:20;;;;;;;;;;;;;;;;;;4961854;28;19926;-89
2023/10/29 06:07:46;;;;;;;;;;;;;;;;;;4963653;28;19925;-88
2023/10/29 06:10:13;;;;;;;;;;;;;;;;;;4963827;28;19918;-89
2023/10/29 06:12:39;;;;;;;;;;;;;;;;;;4970322;28;20370;-89
2023/10/29 06:15:05;;;;;;;;;;;;;;;;;;4967639;28;19978;-90
2023/10/29 06:17:31;;;;;;;;;;;;;;;;;;4970485;28;19914;-90
2023/10/29 06:19:57;;;;;;;;;;;;;;;;;;4970157;28;19929;-89
2023/10/29 06:22:22;;;;;;;;;;;;;;;;;;4966868;28;19947;-89
2023/10/29 06:24:48;;;;;;;;;;;;;;;;;;4986595;28;19922;-89
2023/10/29 06:27:14;;;;;;;;;;;;;;;;;;4967861;28;19960;-89
2023/10/29 06:29:40;;;;;;;;;;;;;;;;;;4970548;28;19918;-89
2023/10/29 06:32:06;;;;;;;;;;;;;;;;;;4971797;28;19985;-90
2023/10/29 06:34:32;;;;;;;;;;;;;;;;;;4966745;28;19915;-89
2023/10/29 06:36:58;;;;;;;;;;;;;;;;;;4965440;28;20201;-89
2023/10/29 06:39:24;;;;;;;;;;;;;;;;;;4969256;28;19924;-89
2023/10/29 06:41:50;;;;;;;;;;;;;;;;;;4969707;28;20390;-90
2023/10/29 06:44:16;;;;;;;;;;;;;;;;;;4967245;28;20011;-90
2023/10/29 06:46:42;;;;;;;;;;;;;;;;;;4970291;28;19914;-90
2023/10/29 06:49:08;;;;;;;;;;;;;;;;;;4965972;28;19922;-91
2023/10/29 06:51:34;;;;;;;;;;;;;;;;;;4969731;28;21095;-91
2023/10/29 06:54:00;;;;;;;;;;;;;;;;;;4988930;28;19918;-91
2023/10/29 06:56:27;;;;;;;;;;;;;;;;;;4966267;28;19919;-91
2023/10/29 06:58:53;;;;;;;;;;;;;;;;;;4967282;28;19921;-91
2023/10/29 07:01:19;;;;;;;;;;;;;;;;;;4965502;28;19914;-90
2023/10/29 07:03:45;;;;;;;;;;;;;;;;;;4970164;28;20048;-90
2023/10/29 07:06:11;;;;;;;;;;;;;;;;;;4965362;28;20637;-90
2023/10/29 07:08:37;;;;;;;;;;;;;;;;;;4966237;28;19981;-90
2023/10/29 07:11:04;;;;;;;;;;;;;;;;;;4962427;28;20009;-90
2023/10/29 07:13:30;;;;;;;;;;;;;;;;;;4969328;28;19949;-90
2023/10/29 07:15:56;;;;;;;;;;;;;;;;;;4971574;28;20008;-90
2023/10/29 07:18:25;;;;;;;;;;;;;;;;;;4973236;28;19930;-90
2023/10/29 07:20:56;;;;;;;;;;;;;;;;;;4966776;28;19918;-90
2023/10/29 07:23:26;;;;;;;;;;;;;;;;;;4963236;28;20228;-90
2023/10/29 07:25:52;;;;;;;;;;;;;;;;;;4969980;28;20177;-90
2023/10/29 07:28:18;;;;;;;;;;;;;;;;;;4969760;28;20394;-90
2023/10/29 07:30:44;;;;;;;;;;;;;;;;;;4973045;28;19926;-90
2023/10/29 07:33:10;;;;;;;;;;;;;;;;;;4968117;28;19922;-90
2023/10/29 07:35:36;;;;;;;;;;;;;;;;;;4967700;28;19914;-90
2023/10/29 07:38:08;;;;;;;;;;;;;;;;;;4973562;28;19918;-92
2023/10/29 07:40:36;;;;;;;;;;;;;;;;;;4965973;28;20379;-91
2023/10/29 07:43:05;;;;;;;;;;;;;;;;;;4969537;28;19961;-92
2023/10/29 07:45:31;;;;;;;;;;;;;;;;;;4977726;28;20367;-91
2023/10/29 07:47:57;;;;;;;;;;;;;;;;;;4970296;28;19993;-92
2023/10/29 07:50:23;;;;;;;;;;;;;;;;;;4967125;28;19990;-91
2023/10/29 07:52:49;;;;;;;;;;;;;;;;;;4963581;28;19910;-91
2023/10/29 07:55:14;;;;;;;;;;;;;;;;;;4966502;28;20016;-92
2023/10/29 07:57:40;;;;;;;;;;;;;;;;;;4965540;28;20342;-91
2023/10/29 08:00:07;;;;;;;;;;;;;;;;;;4967314;28;20842;-91
2023/10/29 08:02:33;;;;;;;;;;;;;;;;;;4972484;28;19913;-92
2023/10/29 08:04:59;;;;;;;;;;;;;;;;;;4968142;28;20531;-91
2023/10/29 08:07:26;;;;;;;;;;;;;;;;;;4969583;28;19918;-92
2023/10/29 08:09:51;;;;;;;;;;;;;;;;;;4969027;28;19924;-90
2023/10/29 08:12:17;;;;;;;;;;;;;;;;;;4967326;28;19914;-88
2023/10/29 08:14:44;;;;;;;;;;;;;;;;;;4981979;28;19925;-90
2023/10/29 08:17:12;;;;;;;;;;;;;;;;;;4968936;28;19937;-89
2023/10/29 08:19:38;;;;;;;;;;;;;;;;;;4967567;28;19941;-90
2023/10/29 08:22:04;;;;;;;;;;;;;;;;;;4962330;28;19922;-89
2023/10/29 08:24:30;;;;;;;;;;;;;;;;;;4968365;28;19914;-90
2023/10/29 08:26:56;;;;;;;;;;;;;;;;;;4968934;28;20033;-90
2023/10/29 08:29:22;;;;;;;;;;;;;;;;;;4965192;28;19914;-90
2023/10/29 08:31:54;;;;;;;;;;;;;;;;;;4968573;28;19926;-90
2023/10/29 08:34:21;;;;;;;;;;;;;;;;;;4969990;28;19922;-89
2023/10/29 08:36:56;;;;;;;;;;;;;;;;;;4971746;28;19972;-90
2023/10/29 08:39:22;;;;;;;;;;;;;;;;;;4970621;28;20005;-89
2023/10/29 08:41:48;;;;;;;;;;;;;;;;;;4967357;28;20012;-90
2023/10/29 08:44:18;;;;;;;;;;;;;;;;;;4967158;28;19973;-89
2023/10/29 08:46:44;;;;;;;;;;;;;;;;;;4966679;28;19929;-89
2023/10/29 08:49:11;;;;;;;;;;;;;;;;;;4969260;28;19953;-90
2023/10/29 08:51:37;;;;;;;;;;;;;;;;;;4965829;28;19929;-91
2023/10/29 08:54:03;;;;;;;;;;;;;;;;;;4964138;28;19928;-91
2023/10/29 08:56:29;;;;;;;;;;;;;;;;;;4969010;28;19995;-91
2023/10/29 08:58:55;;;;;;;;;;;;;;;;;;4980587;28;20021;-91
2023/10/29 09:01:21;;;;;;;;;;;;;;;;;;4965902;28;19958;-92
2023/10/29 09:03:47;;;;;;;;;;;;;;;;;;4971710;28;19924;-91
2023/10/29 09:06:14;;;;;;;;;;;;;;;;;;4971802;28;19914;-92
2023/10/29 09:08:40;;;;;;;;;;;;;;;;;;4968092;28;19949;-91
2023/10/29 09:11:06;;;;;;;;;;;;;;;;;;4960367;28;20219;-92
2023/10/29 09:13:32;;;;;;;;;;;;;;;;;;4962300;28;19922;-91
2023/10/29 09:15:59;;;;;;;;;;;;;;;;;;4962748;28;19914;-91
2023/10/29 09:18:25;;;;;;;;;;;;;;;;;;4963334;28;19918;-89
2023/10/29 09:20:51;;;;;;;;;;;;;;;;;;4961202;28;20368;-90
2023/10/29 09:23:17;;;;;;;;;;;;;;;;;;4967023;28;19914;-90
2023/10/29 09:25:46;;;;;;;;;;;;;;;;;;4968029;28;19925;-90
2023/10/29 09:28:13;;;;;;;;;;;;;;;;;;4963613;28;20625;-90
2023/10/29 09:30:39;;;;;;;;;;;;;;;;;;4985191;28;20568;-90
2023/10/29 09:33:07;;;;;;;;;;;;;;;;;;4949642;28;19922;-89
2023/10/29 09:35:33;;;;;;;;;;;;;;;;;;4934931;28;19978;-90
2023/10/29 09:37:59;;;;;;;;;;;;;;;;;;4945406;28;19922;-90
2023/10/29 09:40:25;;;;;;;;;;;;;;;;;;4935404;28;19922;-90
2023/10/29 09:42:53;;;;;;;;;;;;;;;;;;4935343;28;19918;-90
2023/10/29 09:45:19;;;;;;;;;;;;;;;;;;4943082;28;19914;-90
2023/10/29 09:47:45;;;;;;;;;;;;;;;;;;4944062;28;20441;-91
2023/10/29 09:50:11;;;;;;;;;;;;;;;;;;4941991;28;19926;-90
2023/10/29 09:52:37;;;;;;;;;;;;;;;;;;4944292;28;19929;-90
2023/10/29 09:55:04;;;;;;;;;;;;;;;;;;4944347;28;19914;-90
2023/10/29 09:57:30;;;;;;;;;;;;;;;;;;4947271;28;19915;-90
2023/10/29 09:59:56;;;;;;;;;;;;;;;;;;4946871;28;19926;-90
2023/10/29 10:02:23;;;;;;;;;;;;;;;;;;4937051;28;20378;-90
2023/10/29 10:04:50;;;;;;;;;;;;;;;;;;4952249;28;19950;-91
2023/10/29 10:07:16;;;;;;;;;;;;;;;;;;4956396;28;19925;-90
2023/10/29 10:09:43;;;;;;;;;;;;;;;;;;4955121;28;19918;-90
2023/10/29 10:12:08;;;;;;;;;;;;;;;;;;4953470;28;19910;-90
2023/10/29 10:14:35;;;;;;;;;;;;;;;;;;4944798;28;19922;-90
2023/10/29 10:17:10;;;;;;;;;;;;;;;;;;4941747;28;20320;-90
2023/10/29 10:19:36;;;;;;;;;;;;;;;;;;4949568;28;19984;-90
2023/10/29 10:22:03;;;;;;;;;;;;;;;;;;4942524;28;19958;-90
2023/10/29 10:24:30;;;;;;;;;;;;;;;;;;4933582;29;20178;-89
2023/10/29 10:26:56;;;;;;;;;;;;;;;;;;4941333;28;20017;-90
2023/10/29 10:29:21;;;;;;;;;;;;;;;;;;4935770;29;20005;-90
2023/10/29 10:31:47;;;;;;;;;;;;;;;;;;4959425;28;20016;-90
2023/10/29 10:34:16;;;;;;;;;;;;;;;;;;4967343;28;19914;-90
2023/10/29 10:36:42;;;;;;;;;;;;;;;;;;4966047;28;19914;-91
2023/10/29 10:39:09;;;;;;;;;;;;;;;;;;4964965;28;19922;-91
2023/10/29 10:41:38;;;;;;;;;;;;;;;;;;4967139;28;19918;-91
2023/10/29 10:44:04;;;;;;;;;;;;;;;;;;4963262;28;19945;-89
2023/10/29 10:46:30;;;;;;;;;;;;;;;;;;4962276;28;20050;-90
2023/10/29 10:48:56;;;;;;;;;;;;;;;;;;4966533;28;19922;-90
2023/10/29 10:51:22;;;;;;;;;;;;;;;;;;4966661;28;20379;-90
2023/10/29 10:53:48;;;;;;;;;;;;;;;;;;4964650;28;19914;-90
2023/10/29 10:56:14;;;;;;;;;;;;;;;;;;4973236;28;19920;-90
2023/10/29 10:58:40;;;;;;;;;;;;;;;;;;4967949;28;20027;-90
2023/10/29 11:01:07;;;;;;;;;;;;;;;;;;4979048;28;19925;-91
2023/10/29 11:03:33;;;;;;;;;;;;;;;;;;4990553;28;19914;-90
2023/10/29 11:06:00;;;;;;;;;;;;;;;;;;4986113;28;19968;-90
2023/10/29 11:08:26;;;;;;;;;;;;;;;;;;4976965;28;19914;-90
2023/10/29 11:10:57;;;;;;;;;;;;;;;;;;4975792;28;20202;-90
2023/10/29 11:13:26;;;;;;;;;;;;;;;;;;4977304;28;19925;-90
2023/10/29 11:15:54;;;;;;;;;;;;;;;;;;4974596;28;19914;-90
2023/10/29 11:18:20;;;;;;;;;;;;;;;;;;4973245;28;19922;-90
2023/10/29 11:20:47;;;;;;;;;;;;;;;;;;4971481;28;19921;-91
2023/10/29 11:23:13;;;;;;;;;;;;;;;;;;4973776;28;19914;-91
2023/10/29 11:25:42;;;;;;;;;;;;;;;;;;4973271;28;20394;-91
2023/10/29 11:28:08;;;;;;;;;;;;;;;;;;4970411;28;19915;-91
2023/10/29 11:30:34;;;;;;;;;;;;;;;;;;4970605;28;20114;-91
2023/10/29 11:33:28;;;;;;;;;;;;;;;;;;4978540;28;19949;-90
2023/10/29 11:35:52;;;;;;;;;;;;;;;;;;4967051;28;19914;-90
2023/10/29 11:38:18;;;;;;;;;;;;;;;;;;4970669;28;19914;-92
2023/10/29 11:40:44;;;;;;;;;;;;;;;;;;4968999;28;20329;-92
2023/10/29 11:43:10;;;;;;;;;;;;;;;;;;4973709;28;19921;-92
2023/10/29 11:45:37;;;;;;;;;;;;;;;;;;4969919;28;19924;-92
2023/10/29 11:48:09;;;;;;;;;;;;;;;;;;4979487;28;20012;-91
2023/10/29 11:50:35;;;;;;;;;;;;;;;;;;4973113;28;19922;-92
2023/10/29 11:53:01;;;;;;;;;;;;;;;;;;4969274;28;19929;-91
2023/10/29 11:55:27;;;;;;;;;;;;;;;;;;4975356;28;20329;-92
2023/10/29 11:57:53;;;;;;;;;;;;;;;;;;4968621;28;19915;-92
2023/10/29 12:00:21;;;;;;;;;;;;;;;;;;4965342;28;20052;-92
2023/10/29 12:02:48;;;;;;;;;;;;;;;;;;4971498;28;19925;-91
2023/10/29 12:05:15;;;;;;;;;;;;;;;;;;4969495;28;19914;-92
2023/10/29 12:07:41;;;;;;;;;;;;;;;;;;4966175;28;19922;-90
2023/10/29 12:10:07;;;;;;;;;;;;;;;;;;4963012;28;19922;-92
2023/10/29 12:12:33;;;;;;;;;;;;;;;;;;4964549;28;20390;-92
2023/10/29 12:14:59;;;;;;;;;;;;;;;;;;4966947;28;19948;-92
2023/10/29 12:17:25;;;;;;;;;;;;;;;;;;4967263;28;20426;-92
2023/10/29 12:19:51;;;;;;;;;;;;;;;;;;4967771;28;19957;-91
2023/10/29 12:22:17;;;;;;;;;;;;;;;;;;4968037;28;19925;-92
2023/10/29 12:24:43;;;;;;;;;;;;;;;;;;4975171;28;19914;-92
2023/10/29 12:27:09;;;;;;;;;;;;;;;;;;4965770;28;19914;-93
2023/10/29 12:29:35;;;;;;;;;;;;;;;;;;4969077;28;19914;-92
2023/10/29 12:32:01;;;;;;;;;;;;;;;;;;4972014;28;19922;-92
2023/10/29 12:34:27;;;;;;;;;;;;;;;;;;4967856;28;19961;-93
2023/10/29 12:36:54;;;;;;;;;;;;;;;;;;4969274;28;19918;-92
2023/10/29 12:39:19;;;;;;;;;;;;;;;;;;4963959;28;19969;-92
2023/10/29 12:41:45;;;;;;;;;;;;;;;;;;4964173;28;19959;-93
2023/10/29 12:44:11;;;;;;;;;;;;;;;;;;4963384;28;19921;-92
2023/10/29 12:46:38;;;;;;;;;;;;;;;;;;4964369;28;19915;-92
2023/10/29 12:49:04;;;;;;;;;;;;;;;;;;4962819;28;19914;-90
2023/10/29 12:51:30;;;;;;;;;;;;;;;;;;4968431;28;19945;-91
2023/10/29 12:53:56;;;;;;;;;;;;;;;;;;4971505;28;20189;-90
2023/10/29 12:56:22;;;;;;;;;;;;;;;;;;4963835;28;20196;-91
2023/10/29 12:58:48;;;;;;;;;;;;;;;;;;4962885;28;20350;-91
2023/10/29 13:01:15;;;;;;;;;;;;;;;;;;4970612;28;19938;-90
2023/10/29 13:03:41;;;;;;;;;;;;;;;;;;4978602;28;19914;-90
2023/10/29 13:06:08;;;;;;;;;;;;;;;;;;4963579;28;19946;-91
2023/10/29 13:08:34;;;;;;;;;;;;;;;;;;4967763;28;19925;-90
2023/10/29 13:11:02;;;;;;;;;;;;;;;;;;4960379;28;19922;-90
2023/10/29 13:13:28;;;;;;;;;;;;;;;;;;4965603;28;19989;-91
2023/10/29 13:15:54;;;;;;;;;;;;;;;;;;4966536;28;20001;-91
2023/10/29 13:18:20;;;;;;;;;;;;;;;;;;4964517;28;19914;-92
2023/10/29 13:20:47;;;;;;;;;;;;;;;;;;4966178;28;20378;-91
2023/10/29 13:23:13;;;;;;;;;;;;;;;;;;4966783;28;20290;-90
2023/10/29 13:25:39;;;;;;;;;;;;;;;;;;4971178;28;19923;-90
2023/10/29 13:28:05;;;;;;;;;;;;;;;;;;4965312;28;19934;-90
2023/10/29 13:30:32;;;;;;;;;;;;;;;;;;4966122;28;19925;-91
2023/10/29 13:32:58;;;;;;;;;;;;;;;;;;4957394;28;20402;-90
2023/10/29 13:35:23;;;;;;;;;;;;;;;;;;4944369;28;19930;-92
2023/10/29 13:37:49;;;;;;;;;;;;;;;;;;4931729;29;19923;-91
2023/10/29 13:40:15;;;;;;;;;;;;;;;;;;4948726;28;19923;-92
2023/10/29 13:42:41;;;;;;;;;;;;;;;;;;4939703;28;19918;-92
2023/10/29 13:45:07;;;;;;;;;;;;;;;;;;4930589;28;19918;-92
2023/10/29 13:47:33;;;;;;;;;;;;;;;;;;4943153;28;19929;-92
2023/10/29 13:49:59;;;;;;;;;;;;;;;;;;4948602;28;19927;-92
2023/10/29 13:52:25;;;;;;;;;;;;;;;;;;4944022;28;19922;-92
2023/10/29 13:54:51;;;;;;;;;;;;;;;;;;4947641;28;19964;-92
2023/10/29 13:57:17;;;;;;;;;;;;;;;;;;4945699;28;20375;-92
2023/10/29 13:59:43;;;;;;;;;;;;;;;;;;4934494;29;19965;-89
2023/10/29 14:02:09;;;;;;;;;;;;;;;;;;4934552;29;19988;-90
2023/10/29 14:04:35;;;;;;;;;;;;;;;;;;4943507;28;19923;-91
2023/10/29 14:07:01;;;;;;;;;;;;;;;;;;4941381;28;20074;-89
2023/10/29 14:09:27;;;;;;;;;;;;;;;;;;4929223;29;19958;-91
2023/10/29 14:11:53;;;;;;;;;;;;;;;;;;4934778;29;20131;-89
2023/10/29 14:14:20;;;;;;;;;;;;;;;;;;4938673;28;20541;-90
2023/10/29 14:16:46;;;;;;;;;;;;;;;;;;4938025;29;19914;-90
2023/10/29 14:19:12;;;;;;;;;;;;;;;;;;4942180;28;19923;-91
2023/10/29 14:21:38;;;;;;;;;;;;;;;;;;4930278;29;19925;-89
2023/10/29 14:24:07;;;;;;;;;;;;;;;;;;4947457;28;20394;-91
2023/10/29 14:26:33;;;;;;;;;;;;;;;;;;4945371;28;19915;-90
2023/10/29 14:28:59;;;;;;;;;;;;;;;;;;4931822;28;19990;-89
2023/10/29 14:31:31;;;;;;;;;;;;;;;;;;4936613;28;19926;-90
2023/10/29 14:33:57;;;;;;;;;;;;;;;;;;4970926;28;19962;-89
2023/10/29 14:36:23;;;;;;;;;;;;;;;;;;4970593;28;20413;-92
2023/10/29 14:38:49;;;;;;;;;;;;;;;;;;4969674;28;20374;-90
2023/10/29 14:41:15;;;;;;;;;;;;;;;;;;4986741;28;19929;-90
2023/10/29 14:43:41;;;;;;;;;;;;;;;;;;4964359;28;19973;-90
2023/10/29 14:46:07;;;;;;;;;;;;;;;;;;4965241;28;19918;-89
2023/10/29 14:48:37;;;;;;;;;;;;;;;;;;4972549;28;19918;-92
2023/10/29 14:51:04;;;;;;;;;;;;;;;;;;4974628;28;19950;-92
2023/10/29 14:53:30;;;;;;;;;;;;;;;;;;4973689;28;20801;-92
2023/10/29 14:55:56;;;;;;;;;;;;;;;;;;4972919;28;19918;-91
2023/10/29 14:58:21;;;;;;;;;;;;;;;;;;4972780;28;20021;-91
2023/10/29 15:00:47;;;;;;;;;;;;;;;;;;4974187;28;19915;-91
2023/10/29 15:03:14;;;;;;;;;;;;;;;;;;4976644;28;20248;-91
2023/10/29 15:05:40;;;;;;;;;;;;;;;;;;4981593;28;20620;-91
2023/10/29 15:08:06;;;;;;;;;;;;;;;;;;4979795;28;20274;-91
2023/10/29 15:10:32;;;;;;;;;;;;;;;;;;4983182;28;19926;-91
2023/10/29 15:12:58;;;;;;;;;;;;;;;;;;4982060;28;19969;-92
2023/10/29 15:15:25;;;;;;;;;;;;;;;;;;4980257;28;19960;-91
2023/10/29 15:17:55;;;;;;;;;;;;;;;;;;4975669;28;20447;-93
2023/10/29 15:20:21;;;;;;;;;;;;;;;;;;4978347;28;19974;-91
2023/10/29 15:22:49;;;;;;;;;;;;;;;;;;4982322;28;19921;-92
2023/10/29 15:25:15;;;;;;;;;;;;;;;;;;4978196;28;19918;-92
2023/10/29 15:27:41;;;;;;;;;;;;;;;;;;4982302;28;19922;-92
2023/10/29 15:30:07;;;;;;;;;;;;;;;;;;4981138;28;20322;-93
2023/10/29 15:32:33;;;;;;;;;;;;;;;;;;4981021;28;19930;-92
2023/10/29 15:35:00;;;;;;;;;;;;;;;;;;4978334;28;20036;-93
2023/10/29 15:37:26;;;;;;;;;;;;;;;;;;4970203;28;19922;-93
2023/10/29 15:39:52;;;;;;;;;;;;;;;;;;4976878;28;19925;-92
2023/10/29 15:42:18;;;;;;;;;;;;;;;;;;4976345;28;19964;-93
2023/10/29 15:44:44;;;;;;;;;;;;;;;;;;4976817;28;19954;-92
2023/10/29 15:47:10;;;;;;;;;;;;;;;;;;4973696;28;19921;-93
2023/10/29 15:49:36;;;;;;;;;;;;;;;;;;4975216;28;19919;-92
2023/10/29 15:52:03;;;;;;;;;;;;;;;;;;4974944;28;19926;-92
2023/10/29 15:54:29;;;;;;;;;;;;;;;;;;4976389;28;19921;-91
2023/10/29 15:56:56;;;;;;;;;;;;;;;;;;4973585;28;20294;-92
2023/10/29 15:59:22;;;;;;;;;;;;;;;;;;4971351;28;20375;-92
2023/10/29 16:01:49;;;;;;;;;;;;;;;;;;4975254;28;19974;-93
2023/10/29 16:04:15;;;;;;;;;;;;;;;;;;4969966;28;19925;-92
2023/10/29 16:06:43;;;;;;;;;;;;;;;;;;4966988;28;19918;-92
2023/10/29 16:09:10;;;;;;;;;;;;;;;;;;4970441;28;20227;-92
2023/10/29 16:11:36;;;;;;;;;;;;;;;;;;4964027;28;19922;-92
2023/10/29 16:14:02;;;;;;;;;;;;;;;;;;4969404;28;20430;-92
2023/10/29 16:16:27;;;;;;;;;;;;;;;;;;4974682;28;19914;-92
2023/10/29 16:18:54;;;;;;;;;;;;;;;;;;4966528;28;20012;-92
2023/10/29 16:21:20;;;;;;;;;;;;;;;;;;4968452;28;19944;-92
2023/10/29 16:23:46;;;;;;;;;;;;;;;;;;4970563;28;19922;-92
2023/10/29 16:26:12;;;;;;;;;;;;;;;;;;4972258;28;19960;-92
2023/10/29 16:28:38;;;;;;;;;;;;;;;;;;4965385;28;19921;-92
2023/10/29 16:31:04;;;;;;;;;;;;;;;;;;4969771;28;19922;-93
2023/10/29 16:33:30;;;;;;;;;;;;;;;;;;4969531;28;20280;-92
2023/10/29 16:35:58;;;;;;;;;;;;;;;;;;4965378;28;19922;-92
2023/10/29 16:38:24;;;;;;;;;;;;;;;;;;4972290;28;19966;-92
2023/10/29 16:40:51;;;;;;;;;;;;;;;;;;4973134;28;20008;-92